createdAt,value
2023-08-12T00:01:07.190Z,14.15
2023-08-12T00:04:31.122Z,13.80
2023-08-12T00:07:57.272Z,13.81
2023-08-12T00:11:22.111Z,13.63
2023-08-12T00:14:47.140Z,14.16
2023-08-12T00:18:16.146Z,14.13
2023-08-12T00:21:41.408Z,14.36
2023-08-12T00:25:06.098Z,15.04
2023-08-12T00:28:30.133Z,15.41
2023-08-12T00:31:54.118Z,15.88
2023-08-12T00:35:18.299Z,16.38
2023-08-12T00:38:43.123Z,16.20
2023-08-12T00:42:08.145Z,16.50
2023-08-12T00:45:33.150Z,16.86
2023-08-12T00:48:57.187Z,16.05
2023-08-12T00:52:21.109Z,15.77
2023-08-12T00:55:46.166Z,15.61
2023-08-12T00:59:10.138Z,14.78
2023-08-12T01:02:36.224Z,14.38
2023-08-12T01:06:01.111Z,14.83
2023-08-12T01:09:25.326Z,14.61
2023-08-12T01:12:56.155Z,15.15
2023-08-12T01:16:22.187Z,15.18
2023-08-12T01:19:51.123Z,15.21
2023-08-12T01:23:31.167Z,14.94
2023-08-12T01:27:04.139Z,14.89
2023-08-12T01:30:28.401Z,15.10
2023-08-12T01:34:06.147Z,15.05
2023-08-12T01:37:37.177Z,15.17
2023-08-12T01:41:01.138Z,15.85
2023-08-12T01:44:25.185Z,15.83
2023-08-12T01:47:51.173Z,15.90
2023-08-12T01:51:16.189Z,15.86
2023-08-12T01:54:44.164Z,15.90
2023-08-12T01:58:08.188Z,15.67
2023-08-12T02:01:33.175Z,16.05
2023-08-12T02:04:58.184Z,16.28
2023-08-12T02:08:23.310Z,15.80
2023-08-12T02:11:47.176Z,15.61
2023-08-12T02:15:11.150Z,15.74
2023-08-12T02:18:36.194Z,15.74
2023-08-12T02:22:00.178Z,15.80
2023-08-12T02:25:25.215Z,16.34
2023-08-12T02:28:50.164Z,16.07
2023-08-12T02:32:15.202Z,16.19
2023-08-12T02:35:39.157Z,16.95
2023-08-12T02:39:03.188Z,17.09
2023-08-12T02:42:27.154Z,16.17
2023-08-12T02:45:52.252Z,16.79
2023-08-12T02:49:17.147Z,17.50
2023-08-12T02:52:41.391Z,17.50
2023-08-12T02:56:06.169Z,16.90
2023-08-12T02:59:30.388Z,17.27
2023-08-12T03:02:58.282Z,17.86
2023-08-12T03:06:23.375Z,16.66
2023-08-12T03:09:48.200Z,16.72
2023-08-12T03:13:13.257Z,16.40
2023-08-12T03:16:37.205Z,17.71
2023-08-12T03:20:03.341Z,17.39
2023-08-12T03:23:28.180Z,16.93
2023-08-12T03:26:53.244Z,16.92
2023-08-12T03:30:17.211Z,17.39
2023-08-12T03:33:43.204Z,16.79
2023-08-12T03:37:08.213Z,16.22
2023-08-12T03:40:33.187Z,15.98
2023-08-12T03:43:59.278Z,16.11
2023-08-12T03:47:24.272Z,15.50
2023-08-12T03:50:56.230Z,15.63
2023-08-12T03:54:20.200Z,15.59
2023-08-12T03:57:44.375Z,15.43
2023-08-12T04:01:08.304Z,15.95
2023-08-12T04:04:32.244Z,15.62
2023-08-12T04:07:56.280Z,16.08
2023-08-12T04:11:20.245Z,16.25
2023-08-12T04:14:45.189Z,16.84
2023-08-12T04:18:10.250Z,16.71
2023-08-12T04:21:34.207Z,16.58
2023-08-12T04:24:58.248Z,16.22
2023-08-12T04:28:23.207Z,16.17
2023-08-12T04:31:48.383Z,15.74
2023-08-12T04:35:14.275Z,15.85
2023-08-12T04:38:38.344Z,15.02
2023-08-12T04:42:03.204Z,15.01
2023-08-12T04:45:28.359Z,14.81
2023-08-12T04:48:55.223Z,14.78
2023-08-12T04:52:20.242Z,14.42
2023-08-12T04:55:45.624Z,14.30
2023-08-12T04:59:12.393Z,14.46
2023-08-12T05:02:37.338Z,14.21
2023-08-12T05:06:09.399Z,14.30
2023-08-12T05:09:34.235Z,13.96
2023-08-12T05:13:03.251Z,13.93
2023-08-12T05:16:27.259Z,13.64
2023-08-12T05:19:52.285Z,13.69
2023-08-12T05:23:16.244Z,13.66
2023-08-12T05:26:41.297Z,13.58
2023-08-12T05:30:05.246Z,13.69
2023-08-12T05:33:29.443Z,13.51
2023-08-12T05:36:54.252Z,13.47
2023-08-12T05:40:18.542Z,13.56
2023-08-12T05:43:44.908Z,13.41
2023-08-12T05:47:09.280Z,13.47
2023-08-12T05:50:34.240Z,13.39
2023-08-12T05:53:58.273Z,13.41
2023-08-12T05:57:23.264Z,13.27
2023-08-12T06:00:47.284Z,13.38
2023-08-12T06:04:04.360Z,13.23
2023-08-12T06:07:28.257Z,13.33
2023-08-12T06:10:53.297Z,13.14
2023-08-12T06:14:18.259Z,13.04
2023-08-12T06:17:42.315Z,13.00
2023-08-12T06:21:06.266Z,13.14
2023-08-12T06:24:31.273Z,13.04
2023-08-12T06:27:56.332Z,13.01
2023-08-12T06:31:20.338Z,12.81
2023-08-12T06:34:44.302Z,13.05
2023-08-12T06:38:09.262Z,13.08
2023-08-12T06:41:33.298Z,12.99
2023-08-12T06:44:58.244Z,12.98
2023-08-12T06:48:23.461Z,12.96
2023-08-12T06:51:48.266Z,12.91
2023-08-12T06:55:13.314Z,12.94
2023-08-12T06:58:38.277Z,12.88
2023-08-12T07:02:02.329Z,12.78
2023-08-12T07:05:27.257Z,12.76
2023-08-12T07:08:51.325Z,12.63
2023-08-12T07:12:16.302Z,12.47
2023-08-12T07:15:41.542Z,12.43
2023-08-12T07:18:58.932Z,12.19
2023-08-12T07:22:16.324Z,12.12
2023-08-12T07:25:40.288Z,12.08
2023-08-12T07:29:05.350Z,11.95
2023-08-12T07:32:30.325Z,11.91
2023-08-12T07:35:55.481Z,11.88
2023-08-12T07:39:20.408Z,11.89
2023-08-12T07:42:45.341Z,11.89
2023-08-12T07:46:10.298Z,12.01
2023-08-12T07:49:35.284Z,11.95
2023-08-12T07:53:01.341Z,12.10
2023-08-12T07:56:26.327Z,12.10
2023-08-12T07:59:50.354Z,12.08
2023-08-12T08:03:14.330Z,12.13
2023-08-12T08:06:39.450Z,12.24
2023-08-12T08:09:57.018Z,12.12
2023-08-12T08:13:14.412Z,12.24
2023-08-12T08:16:38.372Z,12.04
2023-08-12T08:20:02.354Z,12.11
2023-08-12T08:23:27.332Z,12.11
2023-08-12T08:26:55.337Z,12.11
2023-08-12T08:30:19.324Z,12.04
2023-08-12T08:33:45.409Z,12.00
2023-08-12T08:37:09.312Z,12.03
2023-08-12T08:40:34.481Z,12.02
2023-08-12T08:43:59.345Z,11.95
2023-08-12T08:47:24.393Z,11.76
2023-08-12T08:50:48.354Z,11.70
2023-08-12T08:54:13.347Z,11.77
2023-08-12T08:57:41.093Z,11.77
2023-08-12T09:01:11.328Z,11.71
2023-08-12T09:04:37.360Z,11.78
2023-08-12T09:08:01.333Z,11.71
2023-08-12T09:11:26.512Z,11.73
2023-08-12T09:14:51.335Z,11.71
2023-08-12T09:18:15.540Z,11.81
2023-08-12T09:21:40.352Z,11.77
2023-08-12T09:25:07.359Z,11.83
2023-08-12T09:28:32.330Z,11.79
2023-08-12T09:31:57.594Z,11.86
2023-08-12T09:35:26.347Z,11.80
2023-08-12T09:38:50.554Z,11.67
2023-08-12T09:42:15.349Z,11.68
2023-08-12T09:45:42.452Z,11.65
2023-08-12T09:49:03.039Z,11.57
2023-08-12T09:52:21.381Z,11.57
2023-08-12T09:55:46.360Z,11.48
2023-08-12T09:59:11.395Z,11.35
2023-08-12T10:02:36.367Z,11.33
2023-08-12T10:06:00.381Z,11.34
2023-08-12T10:09:27.340Z,11.28
2023-08-12T10:12:51.402Z,11.30
2023-08-12T10:16:16.399Z,11.34
2023-08-12T10:19:40.389Z,11.25
2023-08-12T10:23:05.367Z,11.39
2023-08-12T10:26:31.390Z,11.37
2023-08-12T10:29:55.353Z,11.33
2023-08-12T10:33:19.394Z,11.44
2023-08-12T10:37:00.342Z,11.34
2023-08-12T10:40:38.516Z,11.43
2023-08-12T10:44:10.351Z,11.50
2023-08-12T10:47:34.505Z,11.54
2023-08-12T10:50:59.953Z,11.40
2023-08-12T10:54:27.412Z,11.32
2023-08-12T10:57:54.380Z,11.28
2023-08-12T11:01:27.526Z,11.27
2023-08-12T11:04:54.359Z,11.11
2023-08-12T11:08:15.404Z,10.98
2023-08-12T11:11:40.368Z,10.83
2023-08-12T11:15:10.547Z,10.78
2023-08-12T11:18:38.390Z,10.81
2023-08-12T11:22:04.415Z,10.75
2023-08-12T11:25:30.378Z,10.81
2023-08-12T11:28:54.453Z,10.86
2023-08-12T11:32:19.402Z,10.88
2023-08-12T11:35:37.070Z,10.78
2023-08-12T11:38:57.418Z,10.89
2023-08-12T11:42:21.394Z,10.75
2023-08-12T11:45:47.416Z,10.62
2023-08-12T11:49:12.406Z,10.56
2023-08-12T11:52:37.390Z,10.58
2023-08-12T11:56:01.442Z,10.42
2023-08-12T11:59:26.603Z,10.44
2023-08-12T12:03:15.439Z,10.38
2023-08-12T12:06:48.455Z,10.21
2023-08-12T12:10:14.384Z,10.07
2023-08-12T12:13:38.436Z,10.31
2023-08-12T12:17:04.384Z,10.32
2023-08-12T12:20:29.515Z,10.30
2023-08-12T12:23:54.411Z,10.29
2023-08-12T12:27:18.430Z,10.26
2023-08-12T12:30:36.443Z,10.25
2023-08-12T12:34:00.456Z,10.23
2023-08-12T12:37:19.067Z,10.43
2023-08-12T12:40:38.431Z,10.47
2023-08-12T12:44:02.382Z,10.40
2023-08-12T12:47:27.461Z,10.37
2023-08-12T12:50:51.401Z,10.32
2023-08-12T12:54:16.560Z,10.22
2023-08-12T12:57:41.399Z,10.01
2023-08-12T13:01:06.574Z,9.86
2023-08-12T13:04:31.481Z,9.71
2023-08-12T13:07:55.447Z,9.53
2023-08-12T13:11:19.449Z,9.53
2023-08-12T13:14:44.552Z,9.43
2023-08-12T13:18:08.424Z,9.57
2023-08-12T13:21:33.468Z,9.27
2023-08-12T13:24:58.431Z,9.53
2023-08-12T13:28:23.444Z,9.49
2023-08-12T13:31:49.459Z,9.46
2023-08-12T13:35:14.470Z,9.30
2023-08-12T13:38:39.480Z,9.14
2023-08-12T13:41:57.469Z,9.13
2023-08-12T13:45:21.464Z,9.01
2023-08-12T13:48:45.491Z,9.01
2023-08-12T13:52:09.485Z,8.93
2023-08-12T13:55:33.465Z,8.83
2023-08-12T13:58:58.558Z,8.69
2023-08-12T14:02:23.487Z,8.64
2023-08-12T14:05:47.537Z,8.65
2023-08-12T14:09:12.448Z,8.42
2023-08-12T14:12:37.480Z,8.32
2023-08-12T14:16:01.461Z,8.30
2023-08-12T14:19:25.534Z,8.32
2023-08-12T14:22:55.480Z,8.35
2023-08-12T14:26:19.487Z,8.27
2023-08-12T14:29:43.481Z,8.30
2023-08-12T14:33:08.531Z,8.22
2023-08-12T14:36:33.458Z,8.13
2023-08-12T14:39:57.504Z,8.04
2023-08-12T14:43:21.482Z,8.07
2023-08-12T14:46:46.518Z,8.00
2023-08-12T14:50:10.462Z,7.95
2023-08-12T14:53:35.490Z,7.77
2023-08-12T14:57:00.456Z,7.70
2023-08-12T15:00:25.748Z,7.87
2023-08-12T15:03:50.629Z,8.02
2023-08-12T15:07:16.017Z,8.11
2023-08-12T15:10:41.501Z,8.31
2023-08-12T15:14:06.585Z,8.18
2023-08-12T15:17:30.493Z,8.34
2023-08-12T15:20:55.527Z,8.42
2023-08-12T15:24:19.476Z,8.50
2023-08-12T15:27:44.511Z,8.53
2023-08-12T15:31:09.533Z,8.49
2023-08-12T15:34:34.508Z,8.49
2023-08-12T15:37:58.463Z,8.45
2023-08-12T15:41:31.616Z,8.33
2023-08-12T15:44:56.484Z,8.15
2023-08-12T15:48:20.521Z,8.01
2023-08-12T15:51:45.476Z,8.09
2023-08-12T15:55:10.511Z,7.92
2023-08-12T15:58:34.465Z,7.95
2023-08-12T16:01:59.555Z,8.00
2023-08-12T16:05:23.460Z,8.00
2023-08-12T16:08:52.943Z,8.05
2023-08-12T16:12:29.473Z,7.94
2023-08-12T16:15:53.540Z,7.92
2023-08-12T16:19:19.486Z,7.78
2023-08-12T16:22:43.536Z,7.72
2023-08-12T16:26:05.161Z,7.61
2023-08-12T16:29:24.518Z,7.63
2023-08-12T16:32:49.569Z,7.59
2023-08-12T16:36:14.515Z,7.40
2023-08-12T16:39:39.534Z,7.36
2023-08-12T16:43:04.688Z,7.21
2023-08-12T16:46:31.506Z,7.28
2023-08-12T16:49:55.683Z,7.21
2023-08-12T16:53:20.516Z,7.37
2023-08-12T16:56:45.541Z,7.36
2023-08-12T17:00:13.513Z,7.27
2023-08-12T17:03:37.705Z,7.10
2023-08-12T17:07:01.506Z,6.93
2023-08-12T17:10:25.536Z,7.12
2023-08-12T17:13:49.493Z,7.07
2023-08-12T17:17:14.642Z,7.01
2023-08-12T17:20:39.499Z,6.81
2023-08-12T17:24:03.534Z,6.71
2023-08-12T17:27:22.325Z,6.73
2023-08-12T17:30:44.555Z,6.70
2023-08-12T17:34:09.522Z,6.62
2023-08-12T17:37:34.552Z,6.64
2023-08-12T17:40:58.518Z,6.48
2023-08-12T17:44:22.534Z,6.50
2023-08-12T17:47:46.560Z,6.46
2023-08-12T17:51:10.561Z,6.47
2023-08-12T17:54:37.504Z,6.46
2023-08-12T17:58:02.550Z,6.50
2023-08-12T18:01:26.510Z,6.60
2023-08-12T18:04:51.562Z,6.46
2023-08-12T18:08:16.518Z,6.38
2023-08-12T18:11:40.562Z,6.55
2023-08-12T18:15:05.825Z,6.56
2023-08-12T18:18:32.538Z,6.45
2023-08-12T18:21:56.546Z,6.38
2023-08-12T18:25:21.545Z,6.13
2023-08-12T18:28:46.571Z,6.11
2023-08-12T18:32:10.666Z,6.05
2023-08-12T18:35:35.565Z,6.28
2023-08-12T18:38:59.532Z,6.22
2023-08-12T18:42:23.535Z,6.21
2023-08-12T18:45:48.571Z,6.27
2023-08-12T18:49:13.539Z,6.36
2023-08-12T18:52:38.588Z,6.23
2023-08-12T18:56:03.541Z,6.17
2023-08-12T18:59:28.570Z,5.99
2023-08-12T19:02:52.638Z,6.13
2023-08-12T19:06:17.825Z,6.12
2023-08-12T19:09:36.164Z,6.13
2023-08-12T19:12:53.561Z,6.07
2023-08-12T19:16:17.638Z,5.99
2023-08-12T19:19:42.557Z,6.05
2023-08-12T19:23:06.564Z,5.91
2023-08-12T19:26:31.554Z,6.02
2023-08-12T19:29:55.598Z,6.26
2023-08-12T19:33:20.574Z,6.10
2023-08-12T19:36:44.562Z,6.08
2023-08-12T19:40:09.572Z,6.13
2023-08-12T19:43:33.560Z,6.21
2023-08-12T19:46:58.631Z,6.25
2023-08-12T19:50:28.565Z,6.43
2023-08-12T19:53:53.709Z,6.50
2023-08-12T19:57:17.553Z,6.55
2023-08-12T20:00:41.675Z,6.50
2023-08-12T20:04:05.632Z,6.63
2023-08-12T20:07:30.745Z,6.97
2023-08-12T20:10:54.572Z,7.10
2023-08-12T20:14:19.608Z,6.89
2023-08-12T20:17:43.585Z,7.02
2023-08-12T20:21:07.615Z,7.40
2023-08-12T20:24:31.597Z,7.37
2023-08-12T20:27:56.622Z,7.33
2023-08-12T20:31:20.586Z,7.77
2023-08-12T20:34:45.606Z,8.51
2023-08-12T20:38:09.579Z,9.17
2023-08-12T20:41:33.745Z,9.64
2023-08-12T20:44:58.570Z,9.48
2023-08-12T20:48:24.610Z,9.80
2023-08-12T20:51:48.587Z,10.11
2023-08-12T20:55:14.735Z,10.76
2023-08-12T20:58:38.569Z,11.11
2023-08-12T21:02:02.872Z,10.75
2023-08-12T21:05:26.576Z,10.47
2023-08-12T21:08:50.633Z,10.89
2023-08-12T21:12:15.925Z,10.92
2023-08-12T21:15:40.585Z,11.15
2023-08-12T21:19:04.785Z,11.51
2023-08-12T21:22:29.613Z,12.55
2023-08-12T21:25:53.609Z,12.38
2023-08-12T21:29:17.586Z,13.44
2023-08-12T21:32:42.660Z,13.90
2023-08-12T21:36:07.584Z,13.67
2023-08-12T21:39:32.676Z,12.72
2023-08-12T21:42:56.592Z,12.84
2023-08-12T21:46:20.778Z,14.07
2023-08-12T21:49:39.208Z,15.83
2023-08-12T21:52:56.641Z,15.76
2023-08-12T21:56:20.619Z,15.06
2023-08-12T21:59:45.638Z,14.60
2023-08-12T22:03:11.650Z,15.08
2023-08-12T22:06:36.631Z,14.53
2023-08-12T22:10:01.603Z,15.19
2023-08-12T22:13:25.713Z,15.98
2023-08-12T22:16:49.596Z,16.23
2023-08-12T22:20:14.979Z,16.66
2023-08-12T22:23:40.607Z,17.98
2023-08-12T22:27:05.784Z,16.85
2023-08-12T22:30:30.609Z,17.33
2023-08-12T22:33:54.664Z,18.23
2023-08-12T22:37:18.640Z,18.12
2023-08-12T22:40:43.751Z,17.62
2023-08-12T22:44:08.624Z,18.51
2023-08-12T22:47:33.790Z,18.89
2023-08-12T22:50:52.279Z,18.88
2023-08-12T22:54:13.665Z,18.45
2023-08-12T22:57:37.671Z,18.47
2023-08-12T23:01:02.769Z,18.02
2023-08-12T23:04:26.622Z,18.53
2023-08-12T23:07:51.793Z,17.30
2023-08-12T23:11:16.649Z,16.80
2023-08-12T23:14:40.660Z,17.91
2023-08-12T23:18:04.753Z,17.36
2023-08-12T23:21:29.665Z,17.59
2023-08-12T23:24:54.677Z,18.51
2023-08-12T23:28:19.820Z,17.94
2023-08-12T23:31:43.662Z,18.31
2023-08-12T23:35:08.677Z,18.96
2023-08-12T23:38:32.658Z,18.48
2023-08-12T23:41:56.658Z,19.61
2023-08-12T23:45:21.678Z,20.05
2023-08-12T23:48:45.620Z,19.49
2023-08-12T23:52:10.686Z,19.62
2023-08-12T23:55:34.657Z,18.56
2023-08-12T23:58:59.698Z,18.31
